createdAt,value
2022-12-24T00:00:35.708Z,72.03
2022-12-24T00:01:21.010Z,72.03
2022-12-24T00:02:06.071Z,72.03
2022-12-24T00:02:51.122Z,72.03
2022-12-24T00:03:36.551Z,72.03
2022-12-24T00:04:21.245Z,72.03
2022-12-24T00:05:06.075Z,72.03
2022-12-24T00:05:51.140Z,72.03
2022-12-24T00:06:36.396Z,72.03
2022-12-24T00:07:21.452Z,72.03
2022-12-24T00:08:05.998Z,72.03
2022-12-24T00:08:51.773Z,72.03
2022-12-24T00:09:36.443Z,72.03
2022-12-24T00:10:21.515Z,72.03
2022-12-24T00:11:06.541Z,72.03
2022-12-24T00:11:51.897Z,72.03
2022-12-24T00:12:36.644Z,72.03
2022-12-24T00:13:21.805Z,72.03
2022-12-24T00:14:06.552Z,72.03
2022-12-24T00:14:51.967Z,72.03
2022-12-24T00:15:36.823Z,72.03
2022-12-24T00:16:21.982Z,72.03
2022-12-24T00:17:06.579Z,72.03
2022-12-24T00:17:52.071Z,72.03
2022-12-24T00:18:41.564Z,72.03
2022-12-24T00:19:21.940Z,72.03
2022-12-24T00:20:06.976Z,72.03
2022-12-24T00:20:52.570Z,72.03
2022-12-24T00:21:37.333Z,72.03
2022-12-24T00:22:22.272Z,72.03
2022-12-24T00:23:07.431Z,72.03
2022-12-24T00:23:52.577Z,72.03
2022-12-24T00:24:38.682Z,72.03
2022-12-24T00:25:22.602Z,72.03
2022-12-24T00:26:07.478Z,72.03
2022-12-24T00:26:52.753Z,72.03
2022-12-24T00:27:37.822Z,72.03
2022-12-24T00:28:22.872Z,72.03
2022-12-24T00:29:07.785Z,72.03
2022-12-24T00:29:53.058Z,72.03
2022-12-24T00:30:37.935Z,72.03
2022-12-24T00:31:22.781Z,72.03
2022-12-24T00:32:08.031Z,72.03
2022-12-24T00:32:53.376Z,72.03
2022-12-24T00:33:38.221Z,72.03
2022-12-24T00:34:22.867Z,72.03
2022-12-24T00:35:07.956Z,72.03
2022-12-24T00:35:53.569Z,72.03
2022-12-24T00:36:37.831Z,72.03
2022-12-24T00:37:23.176Z,72.03
2022-12-24T00:38:08.469Z,72.03
2022-12-24T00:38:53.519Z,72.03
2022-12-24T00:39:38.571Z,72.03
2022-12-24T00:40:23.608Z,72.03
2022-12-24T00:41:08.585Z,72.03
2022-12-24T00:41:53.879Z,72.03
2022-12-24T00:42:38.509Z,72.03
2022-12-24T00:43:23.872Z,72.03
2022-12-24T00:44:08.613Z,72.03
2022-12-24T00:44:54.016Z,72.03
2022-12-24T00:45:38.937Z,72.03
2022-12-24T00:46:24.308Z,72.03
2022-12-24T00:47:11.956Z,72.03
2022-12-24T00:47:54.493Z,72.03
2022-12-24T00:48:39.195Z,72.03
2022-12-24T00:49:24.480Z,72.03
2022-12-24T00:50:09.459Z,72.03
2022-12-24T00:50:54.761Z,72.03
2022-12-24T00:51:39.688Z,72.03
2022-12-24T00:52:24.507Z,72.03
2022-12-24T00:53:09.398Z,72.03
2022-12-24T00:53:54.774Z,72.03
2022-12-24T00:54:39.503Z,72.03
2022-12-24T00:55:24.657Z,72.03
2022-12-24T00:56:09.709Z,72.03
2022-12-24T00:56:54.736Z,72.03
2022-12-24T00:57:39.768Z,72.03
2022-12-24T00:58:24.780Z,72.03
2022-12-24T00:59:10.031Z,72.03
2022-12-24T00:59:55.107Z,72.03
2022-12-24T01:00:40.201Z,72.03
2022-12-24T01:01:25.143Z,72.03
2022-12-24T01:02:10.336Z,72.03
2022-12-24T01:02:55.667Z,72.03
2022-12-24T01:03:40.250Z,72.03
2022-12-24T01:04:25.358Z,72.03
2022-12-24T01:05:10.507Z,72.03
2022-12-24T01:05:55.264Z,72.03
2022-12-24T01:06:40.499Z,72.03
2022-12-24T01:07:27.502Z,72.03
2022-12-24T01:08:12.573Z,72.03
2022-12-24T01:08:55.564Z,72.03
2022-12-24T01:09:40.840Z,72.03
2022-12-24T01:10:25.781Z,72.03
2022-12-24T01:11:10.532Z,72.03
2022-12-24T01:11:57.897Z,72.03
2022-12-24T01:12:41.117Z,72.03
2022-12-24T01:13:25.905Z,72.03
2022-12-24T01:14:11.165Z,72.03
2022-12-24T01:14:56.319Z,72.03
2022-12-24T01:15:41.673Z,72.03
2022-12-24T01:16:26.211Z,72.03
2022-12-24T01:17:11.291Z,72.03
2022-12-24T01:17:56.653Z,72.03
2022-12-24T01:18:41.929Z,72.03
2022-12-24T01:19:27.175Z,72.03
2022-12-24T01:20:11.728Z,72.03
2022-12-24T01:20:56.670Z,72.03
2022-12-24T01:21:41.743Z,72.03
2022-12-24T01:22:27.099Z,72.03
2022-12-24T01:23:11.944Z,72.03
2022-12-24T01:23:56.802Z,72.03
2022-12-24T01:24:41.950Z,72.03
2022-12-24T01:25:27.007Z,72.03
2022-12-24T01:26:12.317Z,72.03
2022-12-24T01:26:57.151Z,72.03
2022-12-24T01:27:42.995Z,72.03
2022-12-24T01:28:27.641Z,72.03
2022-12-24T01:29:12.083Z,72.03
2022-12-24T01:29:56.939Z,81.25
2022-12-24T01:30:42.178Z,82.84
2022-12-24T01:31:26.836Z,87.50
2022-12-24T01:32:11.757Z,81.58
2022-12-24T01:32:57.068Z,85.84
2022-12-24T01:33:44.337Z,85.84
2022-12-24T01:34:27.215Z,85.84
2022-12-24T01:35:12.451Z,85.84
2022-12-24T01:35:57.909Z,85.84
2022-12-24T01:36:42.756Z,85.84
2022-12-24T01:37:27.295Z,85.84
2022-12-24T01:38:12.790Z,85.84
2022-12-24T01:38:58.134Z,85.84
2022-12-24T01:39:42.795Z,85.84
2022-12-24T01:40:27.603Z,85.84
2022-12-24T01:41:12.987Z,85.84
2022-12-24T01:41:58.251Z,85.84
2022-12-24T01:42:43.207Z,85.84
2022-12-24T01:43:31.534Z,85.84
2022-12-24T01:44:13.423Z,85.84
2022-12-24T01:44:58.168Z,85.84
2022-12-24T01:45:43.352Z,85.84
2022-12-24T01:46:28.336Z,85.84
2022-12-24T01:47:13.166Z,85.84
2022-12-24T01:47:58.644Z,85.84
2022-12-24T01:48:43.254Z,85.84
2022-12-24T01:49:28.313Z,85.84
2022-12-24T01:50:13.895Z,85.84
2022-12-24T01:50:58.579Z,85.84
2022-12-24T01:51:43.281Z,85.84
2022-12-24T01:52:28.331Z,85.84
2022-12-24T01:53:13.276Z,85.84
2022-12-24T01:53:58.438Z,85.84
2022-12-24T01:54:43.619Z,85.84
2022-12-24T01:55:28.961Z,85.84
2022-12-24T01:56:13.506Z,85.84
2022-12-24T01:56:59.091Z,85.84
2022-12-24T01:57:43.820Z,85.84
2022-12-24T01:58:29.114Z,85.84
2022-12-24T01:59:13.941Z,85.84
2022-12-24T01:59:59.202Z,85.84
2022-12-24T02:00:43.946Z,85.84
2022-12-24T02:01:29.159Z,85.84
2022-12-24T02:02:14.967Z,85.84
2022-12-24T02:02:59.302Z,85.84
2022-12-24T02:03:44.411Z,85.84
2022-12-24T02:04:29.244Z,85.84
2022-12-24T02:05:14.491Z,85.84
2022-12-24T02:05:59.545Z,85.84
2022-12-24T02:06:44.502Z,85.84
2022-12-24T02:07:29.559Z,85.84
2022-12-24T02:08:14.656Z,85.84
2022-12-24T02:08:59.877Z,85.84
2022-12-24T02:09:44.425Z,85.84
2022-12-24T02:10:30.089Z,85.84
2022-12-24T02:11:14.790Z,85.84
2022-12-24T02:11:59.890Z,85.84
2022-12-24T02:12:44.891Z,85.84
2022-12-24T02:13:30.008Z,85.84
2022-12-24T02:14:14.972Z,85.84
2022-12-24T02:15:00.337Z,85.84
2022-12-24T02:15:45.235Z,85.84
2022-12-24T02:16:30.404Z,85.84
2022-12-24T02:17:15.329Z,85.84
2022-12-24T02:18:00.581Z,85.84
2022-12-24T02:18:45.195Z,85.84
2022-12-24T02:19:30.779Z,85.84
2022-12-24T02:20:15.223Z,85.84
2022-12-24T02:21:00.995Z,85.84
2022-12-24T02:21:45.526Z,85.84
2022-12-24T02:22:30.373Z,85.84
2022-12-24T02:23:15.541Z,85.84
2022-12-24T02:24:00.502Z,85.84
2022-12-24T02:24:45.383Z,85.84
2022-12-24T02:25:30.948Z,85.84
2022-12-24T02:26:15.598Z,85.84
2022-12-24T02:27:00.724Z,85.84
2022-12-24T02:27:45.573Z,85.84
2022-12-24T02:28:30.769Z,85.84
2022-12-24T02:29:15.690Z,85.84
2022-12-24T02:30:01.099Z,85.84
2022-12-24T02:30:45.688Z,85.84
2022-12-24T02:31:30.774Z,85.84
2022-12-24T02:32:15.857Z,85.84
2022-12-24T02:33:00.883Z,85.84
2022-12-24T02:33:46.031Z,85.84
2022-12-24T02:34:30.812Z,85.84
2022-12-24T02:35:16.025Z,85.84
2022-12-24T02:36:01.439Z,85.84
2022-12-24T02:36:46.350Z,85.84
2022-12-24T02:37:31.205Z,85.84
2022-12-24T02:38:16.148Z,85.84
2022-12-24T02:39:01.544Z,85.84
2022-12-24T02:39:46.583Z,85.84
2022-12-24T02:40:31.602Z,85.84
2022-12-24T02:41:16.798Z,85.84
2022-12-24T02:42:01.951Z,85.84
2022-12-24T02:42:46.721Z,85.84
2022-12-24T02:43:32.120Z,85.84
2022-12-24T02:44:17.137Z,85.84
2022-12-24T02:45:02.080Z,85.84
2022-12-24T02:45:46.916Z,85.84
2022-12-24T02:46:32.213Z,85.84
2022-12-24T02:47:16.830Z,85.84
2022-12-24T02:48:01.902Z,85.84
2022-12-24T02:48:47.249Z,85.84
2022-12-24T02:49:32.322Z,85.84
2022-12-24T02:50:17.366Z,85.84
2022-12-24T02:51:03.034Z,85.84
2022-12-24T02:51:47.883Z,85.84
2022-12-24T02:52:32.428Z,85.84
2022-12-24T02:53:18.201Z,85.84
2022-12-24T02:54:02.670Z,85.84
2022-12-24T02:54:47.815Z,85.84
2022-12-24T02:55:32.651Z,85.84
2022-12-24T02:56:17.610Z,85.84
2022-12-24T02:57:02.788Z,85.84
2022-12-24T02:57:47.308Z,85.84
2022-12-24T02:58:32.678Z,85.84
2022-12-24T02:59:17.775Z,85.84
2022-12-24T03:00:02.737Z,85.84
2022-12-24T03:00:47.991Z,85.84
2022-12-24T03:01:33.251Z,85.84
2022-12-24T03:02:18.670Z,85.84
2022-12-24T03:03:02.992Z,85.84
2022-12-24T03:03:47.863Z,85.84
2022-12-24T03:04:32.928Z,85.84
2022-12-24T03:05:18.351Z,85.84
2022-12-24T03:06:03.037Z,85.84
2022-12-24T03:06:48.202Z,85.84
2022-12-24T03:07:33.405Z,85.84
2022-12-24T03:08:18.405Z,85.84
2022-12-24T03:09:03.256Z,85.84
2022-12-24T03:09:48.318Z,85.84
2022-12-24T03:10:33.580Z,85.84
2022-12-24T03:11:18.736Z,85.84
2022-12-24T03:12:03.900Z,85.84
2022-12-24T03:12:48.820Z,85.84
2022-12-24T03:13:33.812Z,85.84
2022-12-24T03:14:18.452Z,85.84
2022-12-24T03:15:03.784Z,85.84
2022-12-24T03:15:48.975Z,85.84
2022-12-24T03:16:34.034Z,85.84
2022-12-24T03:17:18.811Z,85.84
2022-12-24T03:18:03.993Z,85.84
2022-12-24T03:18:48.933Z,85.84
2022-12-24T03:19:33.869Z,85.84
2022-12-24T03:20:19.130Z,85.84
2022-12-24T03:21:05.236Z,85.84
2022-12-24T03:21:49.225Z,85.84
2022-12-24T03:22:34.170Z,85.84
2022-12-24T03:23:18.744Z,85.84
2022-12-24T03:24:04.468Z,85.84
2022-12-24T03:24:49.140Z,85.84
2022-12-24T03:25:33.989Z,85.84
2022-12-24T03:26:19.351Z,85.84
2022-12-24T03:27:04.537Z,85.84
2022-12-24T03:27:49.584Z,85.84
2022-12-24T03:28:34.115Z,85.84
2022-12-24T03:29:19.172Z,85.84
2022-12-24T03:30:04.230Z,85.84
2022-12-24T03:30:49.398Z,85.84
2022-12-24T03:31:34.492Z,85.84
2022-12-24T03:32:19.430Z,85.84
2022-12-24T03:33:04.364Z,85.84
2022-12-24T03:33:50.247Z,85.84
2022-12-24T03:34:34.562Z,85.84
2022-12-24T03:35:19.637Z,85.84
2022-12-24T03:36:04.750Z,85.84
2022-12-24T03:36:49.840Z,85.84
2022-12-24T03:37:34.810Z,85.84
2022-12-24T03:38:19.887Z,85.84
2022-12-24T03:39:04.946Z,85.84
2022-12-24T03:39:50.094Z,85.84
2022-12-24T03:40:35.215Z,85.84
2022-12-24T03:41:20.687Z,85.84
2022-12-24T03:42:05.743Z,85.84
2022-12-24T03:42:50.591Z,85.84
2022-12-24T03:43:35.480Z,85.84
2022-12-24T03:44:21.017Z,85.84
2022-12-24T03:45:06.289Z,85.84
2022-12-24T03:45:51.030Z,85.84
2022-12-24T03:46:35.806Z,85.84
2022-12-24T03:47:20.867Z,85.84
2022-12-24T03:48:06.094Z,85.84
2022-12-24T03:48:51.095Z,85.84
2022-12-24T03:49:35.906Z,85.84
2022-12-24T03:50:20.990Z,85.84
2022-12-24T03:51:06.250Z,85.84
2022-12-24T03:51:51.413Z,85.84
2022-12-24T03:52:36.234Z,85.84
2022-12-24T03:53:21.606Z,85.84
2022-12-24T03:54:06.550Z,85.84
2022-12-24T03:54:51.715Z,85.84
2022-12-24T03:55:36.962Z,85.84
2022-12-24T03:56:21.550Z,85.84
2022-12-24T03:57:06.868Z,85.84
2022-12-24T03:57:51.661Z,85.84
2022-12-24T03:58:36.673Z,85.84
2022-12-24T03:59:22.451Z,85.84
2022-12-24T04:00:06.931Z,85.84
2022-12-24T04:00:51.700Z,85.84
2022-12-24T04:01:37.044Z,85.84
2022-12-24T04:02:22.635Z,85.84
2022-12-24T04:03:07.063Z,85.84
2022-12-24T04:03:52.116Z,85.84
2022-12-24T04:04:37.027Z,85.84
2022-12-24T04:05:21.889Z,85.84
2022-12-24T04:06:07.238Z,85.84
2022-12-24T04:06:52.321Z,85.84
2022-12-24T04:07:37.251Z,85.84
2022-12-24T04:08:22.525Z,85.84
2022-12-24T04:09:07.632Z,85.84
2022-12-24T04:09:52.375Z,85.84
2022-12-24T04:10:37.479Z,85.84
2022-12-24T04:11:22.447Z,85.84
2022-12-24T04:12:07.546Z,85.84
2022-12-24T04:12:53.191Z,85.84
2022-12-24T04:13:37.906Z,85.84
2022-12-24T04:14:22.830Z,85.84
2022-12-24T04:15:07.621Z,85.84
2022-12-24T04:15:52.669Z,85.84
2022-12-24T04:16:37.667Z,85.84
2022-12-24T04:17:23.009Z,85.84
2022-12-24T04:18:07.923Z,85.84
2022-12-24T04:18:53.101Z,85.84
2022-12-24T04:19:38.092Z,85.84
2022-12-24T04:20:23.454Z,85.84
2022-12-24T04:21:08.271Z,85.84
2022-12-24T04:21:53.814Z,85.84
2022-12-24T04:22:38.282Z,85.84
2022-12-24T04:23:23.130Z,85.84
2022-12-24T04:24:08.500Z,85.84
2022-12-24T04:24:53.351Z,85.84
2022-12-24T04:25:38.664Z,85.84
2022-12-24T04:26:23.215Z,85.84
2022-12-24T04:27:08.625Z,85.84
2022-12-24T04:27:53.263Z,85.84
2022-12-24T04:28:38.320Z,85.84
2022-12-24T04:29:23.793Z,85.84
2022-12-24T04:30:09.061Z,85.84
2022-12-24T04:30:53.931Z,85.84
2022-12-24T04:31:38.720Z,85.84
2022-12-24T04:32:23.620Z,85.84
2022-12-24T04:33:09.077Z,85.84
2022-12-24T04:33:53.782Z,85.84
2022-12-24T04:34:38.807Z,85.84
2022-12-24T04:35:24.037Z,85.84
2022-12-24T04:36:09.824Z,85.84
2022-12-24T04:36:54.575Z,85.84
2022-12-24T04:37:39.099Z,85.84
2022-12-24T04:38:24.186Z,85.84
2022-12-24T04:39:09.332Z,85.84
2022-12-24T04:39:54.070Z,85.84
2022-12-24T04:40:39.120Z,85.84
2022-12-24T04:41:25.083Z,85.84
2022-12-24T04:42:09.844Z,85.84
2022-12-24T04:42:55.064Z,85.84
2022-12-24T04:43:39.551Z,85.84
2022-12-24T04:44:24.743Z,85.84
2022-12-24T04:45:09.665Z,85.84
2022-12-24T04:45:55.119Z,85.84
2022-12-24T04:46:39.881Z,85.84
2022-12-24T04:47:25.078Z,85.84
2022-12-24T04:48:10.209Z,85.84
2022-12-24T04:48:55.050Z,85.84
2022-12-24T04:49:40.158Z,85.84
2022-12-24T04:50:25.266Z,85.84
2022-12-24T04:51:10.432Z,85.84
2022-12-24T04:51:55.380Z,85.84
2022-12-24T04:52:40.447Z,85.84
2022-12-24T04:53:25.392Z,85.84
2022-12-24T04:54:10.473Z,85.84
2022-12-24T04:54:55.512Z,85.84
2022-12-24T04:55:41.383Z,85.84
2022-12-24T04:56:25.917Z,85.84
2022-12-24T04:57:10.669Z,85.84
2022-12-24T04:57:55.685Z,85.84
2022-12-24T04:58:40.680Z,85.84
2022-12-24T04:59:25.992Z,85.84
2022-12-24T05:00:10.800Z,85.84
2022-12-24T05:00:55.961Z,85.84
2022-12-24T05:01:41.127Z,85.84
2022-12-24T05:02:26.481Z,85.84
2022-12-24T05:03:11.603Z,85.84
2022-12-24T05:03:56.421Z,85.84
2022-12-24T05:04:41.594Z,85.84
2022-12-24T05:05:26.299Z,85.84
2022-12-24T05:06:11.549Z,85.84
2022-12-24T05:06:56.507Z,85.84
2022-12-24T05:07:41.663Z,85.84
2022-12-24T05:08:27.042Z,85.84
2022-12-24T05:09:11.472Z,85.84
2022-12-24T05:09:57.046Z,85.84
2022-12-24T05:10:41.725Z,85.84
2022-12-24T05:11:26.741Z,85.84
2022-12-24T05:12:11.713Z,85.84
2022-12-24T05:12:56.760Z,85.84
2022-12-24T05:13:46.273Z,85.84
2022-12-24T05:14:27.689Z,85.84
2022-12-24T05:15:12.035Z,85.84
2022-12-24T05:15:57.070Z,85.84
2022-12-24T05:16:42.549Z,85.84
2022-12-24T05:17:27.235Z,85.84
2022-12-24T05:18:12.316Z,85.84
2022-12-24T05:18:58.104Z,85.84
2022-12-24T05:19:42.376Z,85.84
2022-12-24T05:20:27.426Z,85.84
2022-12-24T05:21:12.431Z,85.84
2022-12-24T05:21:57.953Z,85.84
2022-12-24T05:22:42.844Z,85.84
2022-12-24T05:23:27.542Z,85.84
2022-12-24T05:24:12.739Z,85.84
2022-12-24T05:24:58.097Z,85.84
2022-12-24T05:25:42.518Z,85.84
2022-12-24T05:26:28.075Z,85.84
2022-12-24T05:27:12.866Z,85.84
2022-12-24T05:27:57.914Z,85.84
2022-12-24T05:28:42.649Z,85.84
2022-12-24T05:29:27.684Z,85.84
2022-12-24T05:30:12.865Z,85.84
2022-12-24T05:31:17.238Z,0.00
2022-12-24T05:32:01.802Z,0.00
2022-12-24T05:32:47.181Z,0.00
2022-12-24T05:33:31.715Z,0.00
2022-12-24T05:34:16.871Z,0.00
2022-12-24T05:35:02.334Z,0.00
2022-12-24T05:35:47.609Z,0.00
2022-12-24T05:36:32.241Z,0.00
2022-12-24T05:37:17.925Z,0.00
2022-12-24T05:38:08.023Z,0.00
2022-12-24T05:43:20.556Z,0.00
2022-12-24T05:48:00.131Z,0.00
2022-12-24T05:48:34.504Z,0.00
2022-12-24T05:49:23.393Z,0.00
2022-12-24T05:50:04.760Z,0.00
2022-12-24T05:50:48.755Z,0.00
2022-12-24T05:51:33.466Z,0.00
2022-12-24T05:52:20.452Z,0.00
2022-12-24T05:53:04.775Z,0.00
2022-12-24T05:53:48.818Z,0.00
2022-12-24T05:54:34.370Z,0.00
2022-12-24T05:55:19.374Z,0.00
2022-12-24T05:56:04.590Z,0.00
2022-12-24T05:56:49.130Z,0.00
2022-12-24T05:57:34.252Z,0.00
2022-12-24T05:58:18.912Z,0.00
2022-12-24T05:59:05.627Z,0.00
2022-12-24T05:59:50.235Z,0.00
2022-12-24T06:00:34.136Z,0.00
2022-12-24T06:01:19.187Z,0.00
2022-12-24T06:02:05.665Z,0.00
2022-12-24T06:08:00.396Z,75.61
2022-12-24T06:08:45.088Z,75.61
2022-12-24T06:09:29.993Z,75.61
2022-12-24T06:10:15.782Z,143.13
2022-12-24T06:11:00.912Z,187.37
2022-12-24T06:11:45.431Z,187.37
2022-12-24T06:12:29.986Z,193.25
2022-12-24T06:13:15.477Z,82.91
2022-12-24T06:14:02.480Z,82.91
2022-12-24T06:14:45.488Z,82.91
2022-12-24T06:15:31.234Z,82.91
2022-12-24T06:16:15.606Z,82.91
2022-12-24T06:17:00.093Z,82.91
2022-12-24T06:17:46.033Z,82.91
2022-12-24T06:18:31.373Z,82.91
2022-12-24T06:19:15.529Z,82.91
2022-12-24T06:20:01.329Z,82.91
2022-12-24T06:22:48.199Z,187.27
2022-12-24T06:23:45.559Z,182.18
2022-12-24T06:24:19.129Z,194.35
2022-12-24T06:25:13.280Z,104.59
2022-12-24T06:26:00.380Z,104.59
2022-12-24T06:26:33.121Z,104.59
2022-12-24T06:33:37.057Z,104.59
2022-12-24T06:46:22.507Z,180.39
2022-12-24T06:48:46.858Z,180.39
2022-12-24T06:49:27.718Z,180.39
2022-12-24T06:50:04.642Z,180.39
2022-12-24T06:50:50.620Z,180.39
2022-12-24T06:51:36.636Z,180.39
2022-12-24T06:52:21.074Z,180.39
2022-12-24T06:53:09.165Z,180.39
2022-12-24T06:53:51.040Z,180.39
2022-12-24T06:54:39.421Z,180.39
2022-12-24T06:55:20.988Z,180.39
2022-12-24T06:56:05.490Z,180.39
2022-12-24T06:56:50.790Z,180.39
2022-12-24T06:57:36.263Z,180.39
2022-12-24T06:58:20.866Z,180.39
2022-12-24T06:59:05.827Z,180.39
2022-12-24T06:59:50.929Z,180.39
2022-12-24T07:00:35.956Z,180.39
2022-12-24T07:01:21.129Z,180.39
2022-12-24T07:02:05.519Z,180.39
2022-12-24T07:02:50.855Z,180.39
2022-12-24T07:03:36.609Z,180.39
2022-12-24T07:04:21.276Z,180.39
2022-12-24T07:05:05.727Z,180.39
2022-12-24T07:05:51.954Z,180.39
2022-12-24T07:06:45.394Z,180.39
2022-12-24T07:07:20.965Z,180.39
2022-12-24T07:08:05.988Z,180.39
2022-12-24T07:08:51.125Z,180.39
2022-12-24T07:12:02.915Z,180.39
2022-12-24T07:12:48.563Z,180.39
2022-12-24T07:13:26.626Z,180.39
2022-12-24T07:14:06.847Z,180.39
2022-12-24T07:14:53.072Z,180.39
2022-12-24T07:15:43.043Z,180.39
2022-12-24T07:16:21.649Z,180.39
2022-12-24T07:17:07.409Z,180.39
2022-12-24T07:17:53.746Z,180.39
2022-12-24T07:18:38.645Z,180.39
2022-12-24T07:19:24.724Z,180.39
2022-12-24T07:20:07.977Z,180.39
2022-12-24T07:20:52.824Z,180.39
2022-12-24T07:21:42.253Z,180.39
2022-12-24T07:22:21.646Z,180.39
2022-12-24T07:23:06.914Z,180.39
2022-12-24T07:23:52.107Z,180.39
2022-12-24T07:24:37.305Z,180.39
2022-12-24T07:25:22.179Z,180.39
2022-12-24T07:26:07.144Z,180.39
2022-12-24T07:26:52.297Z,180.39
2022-12-24T07:27:37.362Z,180.39
2022-12-24T07:28:27.605Z,180.39
2022-12-24T07:29:07.568Z,180.39
2022-12-24T07:29:53.271Z,180.39
2022-12-24T07:30:37.673Z,180.39
2022-12-24T07:31:22.659Z,180.39
2022-12-24T07:32:07.737Z,180.39
2022-12-24T07:32:52.883Z,180.39
2022-12-24T07:33:38.007Z,180.39
2022-12-24T07:34:23.200Z,180.39
2022-12-24T07:35:07.706Z,180.39
2022-12-24T07:35:55.929Z,180.39
2022-12-24T07:36:38.030Z,180.39
2022-12-24T07:37:23.933Z,180.39
2022-12-24T07:38:08.138Z,180.39
2022-12-24T07:38:52.890Z,180.39
2022-12-24T07:39:37.980Z,180.39
2022-12-24T07:40:23.458Z,180.39
2022-12-24T07:41:08.604Z,180.39
2022-12-24T07:41:53.453Z,180.39
2022-12-24T07:42:38.478Z,180.39
2022-12-24T07:43:23.270Z,180.39
2022-12-24T07:44:08.606Z,180.39
2022-12-24T07:44:53.754Z,180.39
2022-12-24T07:45:39.455Z,180.39
2022-12-24T07:46:23.806Z,180.39
2022-12-24T07:47:08.711Z,180.39
2022-12-24T07:47:53.824Z,180.39
2022-12-24T07:48:38.585Z,180.39
2022-12-24T07:49:23.987Z,180.39
2022-12-24T07:50:09.153Z,180.39
2022-12-24T07:50:54.214Z,180.39
2022-12-24T07:51:39.153Z,180.39
2022-12-24T07:52:24.316Z,180.39
2022-12-24T07:53:09.391Z,180.39
2022-12-24T07:53:54.186Z,180.39
2022-12-24T07:54:39.385Z,180.39
2022-12-24T07:55:24.334Z,180.39
2022-12-24T07:56:12.711Z,180.39
2022-12-24T07:56:54.413Z,180.39
2022-12-24T07:57:40.117Z,180.39
2022-12-24T07:58:24.676Z,180.39
2022-12-24T07:59:09.884Z,180.39
2022-12-24T07:59:55.083Z,180.39
2022-12-24T08:00:39.524Z,180.39
2022-12-24T08:01:25.199Z,180.39
2022-12-24T08:02:15.804Z,180.39
2022-12-24T08:02:55.394Z,180.39
2022-12-24T08:03:40.270Z,180.39
2022-12-24T08:04:24.700Z,180.39
2022-12-24T08:05:09.980Z,180.39
2022-12-24T08:05:55.174Z,180.39
2022-12-24T08:06:40.020Z,180.39
2022-12-24T08:07:25.470Z,180.39
2022-12-24T08:08:10.396Z,180.39
2022-12-24T08:08:55.268Z,180.39
2022-12-24T08:09:40.813Z,180.39
2022-12-24T08:10:25.587Z,180.39
2022-12-24T08:11:10.544Z,180.39
2022-12-24T08:11:56.238Z,180.39
2022-12-24T08:12:40.633Z,180.39
2022-12-24T08:13:25.897Z,180.39
2022-12-24T08:14:10.720Z,180.39
2022-12-24T08:14:55.499Z,180.39
2022-12-24T08:15:40.460Z,180.39
2022-12-24T08:16:25.604Z,180.39
2022-12-24T08:17:10.663Z,180.39
2022-12-24T08:17:55.828Z,180.39
2022-12-24T08:18:40.827Z,180.39
2022-12-24T08:19:26.037Z,180.39
2022-12-24T08:20:10.682Z,180.39
2022-12-24T08:20:55.816Z,180.39
2022-12-24T08:21:40.839Z,180.39
2022-12-24T08:22:25.726Z,180.39
2022-12-24T08:23:11.026Z,180.39
2022-12-24T08:23:56.039Z,180.39
2022-12-24T08:24:40.870Z,180.39
2022-12-24T08:25:26.108Z,180.39
2022-12-24T08:26:11.069Z,180.39
2022-12-24T08:26:56.352Z,180.39
2022-12-24T08:27:40.974Z,180.39
2022-12-24T08:28:26.206Z,180.39
2022-12-24T08:29:11.270Z,180.39
2022-12-24T08:29:56.144Z,180.39
2022-12-24T08:30:41.392Z,180.39
2022-12-24T08:31:26.870Z,180.39
2022-12-24T08:32:11.663Z,180.39
2022-12-24T08:32:56.699Z,180.39
2022-12-24T08:33:41.755Z,180.39
2022-12-24T08:34:27.006Z,180.39
2022-12-24T08:35:11.364Z,180.39
2022-12-24T08:35:56.993Z,180.39
2022-12-24T08:36:42.535Z,180.39
2022-12-24T08:37:27.101Z,180.39
2022-12-24T08:38:11.530Z,180.39
2022-12-24T08:38:56.994Z,180.39
2022-12-24T08:39:42.682Z,180.39
2022-12-24T08:40:27.114Z,180.39
2022-12-24T08:41:12.782Z,180.39
2022-12-24T08:41:57.148Z,180.39
2022-12-24T08:42:41.954Z,180.39
2022-12-24T08:43:27.353Z,180.39
2022-12-24T08:44:12.300Z,180.39
2022-12-24T08:44:58.060Z,180.39
2022-12-24T08:45:42.704Z,180.39
2022-12-24T08:46:27.634Z,180.39
2022-12-24T08:47:12.604Z,180.39
2022-12-24T08:47:57.593Z,180.39
2022-12-24T08:48:42.748Z,180.39
2022-12-24T08:49:27.909Z,180.39
2022-12-24T08:50:12.548Z,180.39
2022-12-24T08:50:57.701Z,180.39
2022-12-24T08:51:42.748Z,180.39
2022-12-24T08:52:27.818Z,180.39
2022-12-24T08:53:12.579Z,180.39
2022-12-24T08:53:57.720Z,180.39
2022-12-24T08:54:43.109Z,180.39
2022-12-24T08:55:28.134Z,180.39
2022-12-24T08:56:13.430Z,180.39
2022-12-24T08:56:58.161Z,180.39
2022-12-24T08:57:43.504Z,180.39
2022-12-24T08:58:28.464Z,180.39
2022-12-24T08:59:13.335Z,180.39
2022-12-24T08:59:58.384Z,180.39
2022-12-24T09:00:43.499Z,180.39
2022-12-24T09:01:29.304Z,180.39
2022-12-24T09:02:13.882Z,180.39
2022-12-24T09:02:58.660Z,180.39
2022-12-24T09:03:43.670Z,180.39
2022-12-24T09:04:28.610Z,180.39
2022-12-24T09:05:13.867Z,180.39
2022-12-24T09:05:59.030Z,180.39
2022-12-24T09:06:43.366Z,180.39
2022-12-24T09:07:28.939Z,180.39
2022-12-24T09:08:13.932Z,180.39
2022-12-24T09:08:59.000Z,180.39
2022-12-24T09:09:43.792Z,180.39
2022-12-24T09:10:28.953Z,180.39
2022-12-24T09:11:14.023Z,180.39
2022-12-24T09:11:59.594Z,180.39
2022-12-24T09:12:44.454Z,180.39
2022-12-24T09:13:29.491Z,180.39
2022-12-24T09:14:14.482Z,180.39
2022-12-24T09:15:03.233Z,180.39
2022-12-24T09:15:44.169Z,180.39
2022-12-24T09:16:29.033Z,180.39
2022-12-24T09:17:14.073Z,180.39
2022-12-24T09:17:59.126Z,180.39
2022-12-24T09:18:44.268Z,180.39
2022-12-24T09:19:29.428Z,180.39
2022-12-24T09:20:14.281Z,180.39
2022-12-24T09:20:59.347Z,180.39
2022-12-24T09:21:44.424Z,180.39
2022-12-24T09:22:29.503Z,180.39
2022-12-24T09:23:14.506Z,180.39
2022-12-24T09:23:59.666Z,180.39
2022-12-24T09:24:44.615Z,180.39
2022-12-24T09:25:29.703Z,180.39
2022-12-24T09:26:14.732Z,180.39
2022-12-24T09:26:59.921Z,180.39
2022-12-24T09:27:44.846Z,180.39
2022-12-24T09:28:29.927Z,180.39
2022-12-24T09:29:15.057Z,180.39
2022-12-24T09:30:00.066Z,180.39
2022-12-24T09:30:45.605Z,180.39
2022-12-24T09:31:30.283Z,180.39
2022-12-24T09:32:15.974Z,180.39
2022-12-24T09:33:00.709Z,180.39
2022-12-24T09:33:45.659Z,180.39
2022-12-24T09:34:30.949Z,180.39
2022-12-24T09:35:15.708Z,180.39
2022-12-24T09:36:00.679Z,180.39
2022-12-24T09:36:46.550Z,180.39
2022-12-24T09:37:31.026Z,180.39
2022-12-24T09:38:15.938Z,180.39
2022-12-24T09:39:01.232Z,180.39
2022-12-24T09:39:45.656Z,180.39
2022-12-24T09:40:31.234Z,180.39
2022-12-24T09:41:15.859Z,180.39
2022-12-24T09:42:01.276Z,180.39
2022-12-24T09:42:46.177Z,180.39
2022-12-24T09:43:31.130Z,180.39
2022-12-24T09:44:16.291Z,180.39
2022-12-24T09:45:01.518Z,180.39
2022-12-24T09:45:46.457Z,180.39
2022-12-24T09:46:31.367Z,180.39
2022-12-24T09:47:16.314Z,180.39
2022-12-24T09:48:01.686Z,180.39
2022-12-24T09:48:46.747Z,180.39
2022-12-24T09:49:31.996Z,180.39
2022-12-24T09:50:16.758Z,180.39
2022-12-24T09:51:01.744Z,180.39
2022-12-24T09:51:46.852Z,180.39
2022-12-24T09:52:31.644Z,180.39
2022-12-24T09:53:16.770Z,180.39
2022-12-24T09:54:01.837Z,180.39
2022-12-24T09:54:49.971Z,180.39
2022-12-24T09:55:31.959Z,180.39
2022-12-24T09:56:16.688Z,180.39
2022-12-24T09:57:02.116Z,180.39
2022-12-24T09:57:47.122Z,180.39
2022-12-24T09:58:32.181Z,180.39
2022-12-24T09:59:17.321Z,180.39
2022-12-24T10:00:02.292Z,180.39
2022-12-24T10:00:50.049Z,180.39
2022-12-24T10:01:32.190Z,180.39
2022-12-24T10:02:17.375Z,180.39
2022-12-24T10:03:02.235Z,180.39
2022-12-24T10:03:47.450Z,180.39
2022-12-24T10:04:32.810Z,180.39
2022-12-24T10:05:17.358Z,180.39
2022-12-24T10:06:02.443Z,180.39
2022-12-24T10:06:47.379Z,180.39
2022-12-24T10:07:32.667Z,180.39
2022-12-24T10:08:17.586Z,180.39
2022-12-24T10:09:02.462Z,180.39
2022-12-24T10:09:48.112Z,180.39
2022-12-24T10:10:32.625Z,180.39
2022-12-24T10:11:17.936Z,180.39
2022-12-24T10:12:02.895Z,180.39